createdAt,value
2018-03-25T00:01:31.411Z,28.40
2018-03-25T00:04:00.048Z,30.40
2018-03-25T00:06:28.579Z,30.13
2018-03-25T00:08:56.980Z,30.23
2018-03-25T00:11:25.339Z,28.70
2018-03-25T00:13:53.675Z,32.77
2018-03-25T00:16:22.054Z,29.07
2018-03-25T00:18:50.400Z,33.73
2018-03-25T00:21:18.797Z,29.80
2018-03-25T00:23:47.138Z,35.17
2018-03-25T00:26:15.488Z,31.00
2018-03-25T00:28:44.614Z,29.37
2018-03-25T00:31:12.976Z,33.10
2018-03-25T00:33:41.328Z,33.27
2018-03-25T00:36:10.423Z,31.73
2018-03-25T00:38:39.535Z,35.70
2018-03-25T00:41:08.764Z,33.10
2018-03-25T00:43:37.216Z,30.00
2018-03-25T00:46:06.361Z,35.27
2018-03-25T00:48:34.769Z,36.37
2018-03-25T00:51:03.109Z,37.40
2018-03-25T00:53:31.485Z,34.60
2018-03-25T00:55:59.844Z,35.23
2018-03-25T00:58:28.233Z,40.57
2018-03-25T01:00:56.616Z,34.90
2018-03-25T01:03:24.958Z,38.03
2018-03-25T01:05:54.184Z,36.83
2018-03-25T01:08:22.577Z,39.67
2018-03-25T01:10:50.916Z,38.50
2018-03-25T01:13:19.345Z,37.57
2018-03-25T01:15:59.572Z,39.20
2018-03-25T01:18:27.942Z,37.37
2018-03-25T01:20:57.064Z,37.47
2018-03-25T01:23:25.428Z,41.40
2018-03-25T01:25:53.771Z,40.60
2018-03-25T01:28:22.117Z,39.47
2018-03-25T01:30:50.469Z,39.53
2018-03-25T01:33:18.799Z,42.67
2018-03-25T01:35:47.191Z,44.57
2018-03-25T01:38:16.311Z,39.17
2018-03-25T01:40:44.930Z,39.97
2018-03-25T01:43:13.276Z,39.73
2018-03-25T01:45:43.939Z,43.97
2018-03-25T01:48:12.272Z,41.87
2018-03-25T01:50:41.375Z,44.07
2018-03-25T01:53:10.516Z,48.40
2018-03-25T01:55:38.852Z,42.57
2018-03-25T01:58:07.204Z,44.43
2018-03-25T02:00:35.689Z,42.37
2018-03-25T02:03:04.041Z,46.73
2018-03-25T02:05:32.389Z,45.17
2018-03-25T02:08:00.737Z,43.33
2018-03-25T02:10:29.077Z,43.10
2018-03-25T02:12:57.429Z,38.80
2018-03-25T02:15:25.817Z,43.27
2018-03-25T02:17:54.180Z,41.47
2018-03-25T02:20:22.665Z,45.63
2018-03-25T02:22:51.054Z,44.90
2018-03-25T02:25:19.387Z,46.03
2018-03-25T02:27:48.520Z,43.77
2018-03-25T02:30:16.983Z,40.67
2018-03-25T02:32:46.079Z,46.10
2018-03-25T02:35:15.218Z,42.87
2018-03-25T02:37:43.668Z,44.80
2018-03-25T02:40:12.090Z,51.27
2018-03-25T02:42:40.429Z,43.80
2018-03-25T02:45:08.761Z,47.53
2018-03-25T02:47:37.222Z,45.40
2018-03-25T02:50:05.560Z,43.10
2018-03-25T02:52:33.956Z,44.27
2018-03-25T02:55:02.308Z,45.20
2018-03-25T02:57:30.766Z,46.40
2018-03-25T02:59:59.205Z,46.97
2018-03-25T03:02:27.573Z,49.93
2018-03-25T03:04:56.654Z,47.17
2018-03-25T03:07:24.995Z,46.20
2018-03-25T03:09:53.440Z,45.43
2018-03-25T03:12:22.005Z,50.17
2018-03-25T03:14:50.332Z,48.80
2018-03-25T03:17:18.671Z,51.37
2018-03-25T03:19:47.020Z,47.70
2018-03-25T03:22:16.124Z,48.07
2018-03-25T03:24:45.328Z,48.70
2018-03-25T03:27:13.720Z,46.70
2018-03-25T03:29:42.108Z,45.73
2018-03-25T03:32:10.479Z,45.60
2018-03-25T03:34:38.830Z,48.70
2018-03-25T03:37:07.957Z,49.50
2018-03-25T03:39:36.292Z,49.13
2018-03-25T03:42:04.885Z,44.43
2018-03-25T03:44:33.239Z,46.13
2018-03-25T03:47:01.596Z,45.97
2018-03-25T03:49:29.970Z,48.13
2018-03-25T03:51:58.312Z,46.93
2018-03-25T03:54:27.423Z,50.30
2018-03-25T03:56:55.819Z,49.70
2018-03-25T03:59:24.525Z,52.47
2018-03-25T04:01:53.124Z,52.87
2018-03-25T04:04:21.541Z,48.23
2018-03-25T04:06:50.694Z,53.70
2018-03-25T04:09:19.027Z,47.40
2018-03-25T04:11:47.376Z,50.63
2018-03-25T04:14:15.820Z,49.07
2018-03-25T04:16:44.488Z,46.83
2018-03-25T04:19:12.833Z,45.83
2018-03-25T04:21:41.941Z,46.83
2018-03-25T04:24:11.063Z,46.63
2018-03-25T04:26:39.396Z,52.97
2018-03-25T04:29:08.531Z,50.03
2018-03-25T04:31:36.867Z,49.43
2018-03-25T04:34:05.245Z,52.47
2018-03-25T04:36:33.582Z,51.87
2018-03-25T04:39:01.957Z,47.93
2018-03-25T04:41:30.307Z,57.43
2018-03-25T04:44:00.254Z,50.77
2018-03-25T04:46:28.708Z,47.73
2018-03-25T04:48:57.067Z,51.80
2018-03-25T04:51:25.399Z,52.10
2018-03-25T04:53:53.757Z,49.73
2018-03-25T04:56:22.206Z,51.77
2018-03-25T04:58:51.324Z,51.70
2018-03-25T05:01:19.664Z,56.93
2018-03-25T05:03:48.004Z,52.13
2018-03-25T05:06:16.436Z,48.27
2018-03-25T05:08:44.880Z,53.93
2018-03-25T05:11:13.239Z,50.03
2018-03-25T05:13:41.618Z,48.53
2018-03-25T05:16:10.936Z,49.87
2018-03-25T05:18:39.336Z,53.47
2018-03-25T05:21:07.685Z,49.63
2018-03-25T05:23:36.044Z,48.23
2018-03-25T05:26:09.244Z,52.87
2018-03-25T05:28:37.942Z,53.47
2018-03-25T05:31:06.279Z,53.33
2018-03-25T05:33:35.405Z,52.00
2018-03-25T05:36:03.860Z,49.93
2018-03-25T05:38:33.042Z,54.03
2018-03-25T05:41:02.181Z,51.43
2018-03-25T05:43:30.568Z,58.93
2018-03-25T05:45:58.948Z,53.73
2018-03-25T05:48:27.411Z,52.33
2018-03-25T05:50:56.643Z,55.40
2018-03-25T05:53:24.997Z,52.07
2018-03-25T05:55:53.593Z,54.63
2018-03-25T05:58:22.008Z,48.90
2018-03-25T06:00:50.452Z,54.00
2018-03-25T06:03:18.813Z,53.53
2018-03-25T06:05:47.156Z,52.33
2018-03-25T06:08:15.501Z,53.93
2018-03-25T06:10:44.064Z,53.50
2018-03-25T06:13:12.415Z,59.23
2018-03-25T06:15:41.510Z,51.43
2018-03-25T06:18:10.631Z,52.00
2018-03-25T06:20:38.970Z,54.20
2018-03-25T06:23:07.354Z,58.33
2018-03-25T06:25:35.698Z,53.93
2018-03-25T06:28:04.052Z,49.50
2018-03-25T06:30:33.020Z,52.37
2018-03-25T06:33:02.130Z,56.07
2018-03-25T06:35:30.485Z,50.07
2018-03-25T06:37:58.878Z,50.83
2018-03-25T06:40:27.187Z,57.97
2018-03-25T06:42:55.618Z,51.93
2018-03-25T06:45:23.968Z,48.33
2018-03-25T06:47:52.312Z,45.93
2018-03-25T06:50:20.913Z,51.70
2018-03-25T06:52:49.296Z,49.50
2018-03-25T06:55:17.632Z,54.73
2018-03-25T06:57:46.754Z,48.40
2018-03-25T07:00:15.136Z,51.80
2018-03-25T07:02:43.484Z,51.67
2018-03-25T07:05:12.596Z,55.13
2018-03-25T07:07:40.982Z,51.00
2018-03-25T07:10:09.328Z,49.87
2018-03-25T07:12:39.184Z,53.03
2018-03-25T07:15:07.525Z,54.57
2018-03-25T07:17:35.865Z,56.73
2018-03-25T07:20:04.344Z,50.80
2018-03-25T07:22:32.687Z,51.50
2018-03-25T07:25:01.044Z,53.67
2018-03-25T07:27:29.381Z,51.10
2018-03-25T07:29:57.965Z,51.63
2018-03-25T07:32:26.334Z,53.10
2018-03-25T07:34:54.812Z,48.20
2018-03-25T07:37:23.280Z,50.13
2018-03-25T07:39:51.622Z,50.53
2018-03-25T07:42:20.067Z,50.67
2018-03-25T07:44:48.411Z,51.40
2018-03-25T07:47:16.765Z,54.03
2018-03-25T07:49:45.897Z,52.30
2018-03-25T07:52:14.244Z,50.40
2018-03-25T07:54:43.368Z,49.50
2018-03-25T07:57:11.807Z,47.00
2018-03-25T07:59:40.246Z,51.93
2018-03-25T08:02:08.646Z,56.10
2018-03-25T08:04:36.983Z,51.10
2018-03-25T08:07:05.327Z,51.37
2018-03-25T08:09:33.668Z,47.40
2018-03-25T08:12:03.907Z,50.90
2018-03-25T08:14:32.286Z,48.57
2018-03-25T08:17:00.720Z,47.37
2018-03-25T08:19:29.820Z,49.50
2018-03-25T08:21:58.468Z,50.90
2018-03-25T08:24:26.842Z,50.13
2018-03-25T08:26:55.320Z,50.03
2018-03-25T08:29:23.694Z,57.13
2018-03-25T08:31:52.048Z,50.07
2018-03-25T08:34:20.423Z,51.90
2018-03-25T08:36:48.786Z,54.57
2018-03-25T08:39:17.256Z,46.13
2018-03-25T08:41:46.445Z,50.83
2018-03-25T08:44:15.585Z,49.17
2018-03-25T08:46:43.939Z,52.97
2018-03-25T08:49:12.311Z,47.63
2018-03-25T08:51:40.668Z,48.00
2018-03-25T08:54:09.770Z,49.53
2018-03-25T08:56:38.443Z,44.10
2018-03-25T08:59:06.918Z,48.17
2018-03-25T09:01:35.321Z,46.67
2018-03-25T09:04:03.768Z,48.00
2018-03-25T09:06:32.111Z,48.13
2018-03-25T09:09:00.471Z,44.40
2018-03-25T09:11:28.812Z,45.57
2018-03-25T09:13:58.510Z,44.67
2018-03-25T09:16:27.220Z,45.17
2018-03-25T09:18:55.569Z,43.17
2018-03-25T09:21:23.928Z,43.40
2018-03-25T09:23:52.684Z,44.73
2018-03-25T09:26:21.674Z,39.37
2018-03-25T09:28:50.771Z,42.73
2018-03-25T09:31:19.901Z,50.10
2018-03-25T09:33:49.197Z,43.90
2018-03-25T09:36:17.584Z,37.90
2018-03-25T09:38:46.049Z,37.97
2018-03-25T09:41:14.415Z,42.33
2018-03-25T09:43:42.780Z,36.17
2018-03-25T09:46:13.013Z,38.57
2018-03-25T09:48:41.516Z,42.17
2018-03-25T09:51:10.141Z,37.63
2018-03-25T09:53:40.164Z,39.17
2018-03-25T09:56:08.562Z,40.10
2018-03-25T09:58:37.688Z,39.87
2018-03-25T10:01:12.022Z,37.80
2018-03-25T10:03:40.568Z,76.60
2018-03-25T10:06:09.904Z,39.60
2018-03-25T10:08:38.930Z,37.97
2018-03-25T10:11:07.278Z,33.67
2018-03-25T10:13:36.153Z,36.33
2018-03-25T10:16:04.541Z,32.83
2018-03-25T10:18:32.929Z,33.70
2018-03-25T10:21:01.434Z,32.93
2018-03-25T10:23:29.800Z,32.67
2018-03-25T10:25:58.279Z,35.40
2018-03-25T10:28:26.668Z,32.70
2018-03-25T10:30:55.029Z,34.17
2018-03-25T10:33:23.378Z,33.50
2018-03-25T10:35:52.519Z,34.90
2018-03-25T10:38:20.890Z,32.60
2018-03-25T10:40:49.261Z,67.47
2018-03-25T10:43:17.642Z,68.83
2018-03-25T10:45:46.171Z,36.20
2018-03-25T10:48:14.566Z,31.13
2018-03-25T10:50:43.874Z,31.87
2018-03-25T10:53:12.237Z,28.23
2018-03-25T10:55:40.601Z,28.60
2018-03-25T10:58:08.965Z,30.30
2018-03-25T11:00:37.336Z,30.00
2018-03-25T11:03:05.690Z,25.83
2018-03-25T11:05:34.089Z,27.73
2018-03-25T11:08:02.481Z,25.67
2018-03-25T11:10:30.818Z,28.20
2018-03-25T11:12:59.190Z,25.20
2018-03-25T11:15:28.300Z,24.20
2018-03-25T11:17:56.654Z,25.57
2018-03-25T11:20:25.038Z,21.23
2018-03-25T11:22:54.153Z,21.67
2018-03-25T11:25:22.549Z,22.40
2018-03-25T11:27:50.914Z,21.63
2018-03-25T11:30:19.285Z,22.80
2018-03-25T11:32:48.623Z,21.03
2018-03-25T11:35:17.640Z,20.97
2018-03-25T11:37:46.141Z,21.77
2018-03-25T11:40:14.544Z,36.03
2018-03-25T11:42:42.997Z,22.80
2018-03-25T11:45:12.141Z,24.10
2018-03-25T11:47:40.495Z,22.70
2018-03-25T11:50:09.615Z,21.70
2018-03-25T11:52:38.001Z,23.20
2018-03-25T11:55:06.407Z,22.07
2018-03-25T11:57:34.745Z,24.87
2018-03-25T12:00:03.109Z,24.00
2018-03-25T12:02:32.285Z,21.60
2018-03-25T12:05:00.954Z,23.03
2018-03-25T12:07:29.320Z,21.60
2018-03-25T12:09:57.668Z,22.27
2018-03-25T12:12:26.219Z,21.07
2018-03-25T12:14:54.559Z,21.53
2018-03-25T12:17:22.910Z,20.30
2018-03-25T12:19:51.341Z,20.53
2018-03-25T12:22:19.677Z,20.50
2018-03-25T12:24:48.044Z,20.67
2018-03-25T12:27:16.415Z,19.47
2018-03-25T12:29:44.813Z,19.73
2018-03-25T12:32:13.925Z,22.67
2018-03-25T12:34:43.118Z,22.27
2018-03-25T12:37:11.483Z,21.70
2018-03-25T12:39:39.834Z,22.93
2018-03-25T12:42:09.038Z,22.67
2018-03-25T12:44:38.917Z,22.90
2018-03-25T12:47:07.235Z,22.93
2018-03-25T12:49:35.630Z,22.27
2018-03-25T12:52:03.983Z,23.63
2018-03-25T12:54:33.130Z,20.70
2018-03-25T12:57:01.569Z,22.20
2018-03-25T12:59:29.916Z,22.67
2018-03-25T13:01:58.380Z,22.63
2018-03-25T13:04:26.745Z,23.80
2018-03-25T13:06:55.225Z,21.47
2018-03-25T13:09:23.573Z,20.23
2018-03-25T13:11:52.686Z,25.90
2018-03-25T13:14:21.048Z,22.20
2018-03-25T13:16:49.452Z,21.87
2018-03-25T13:19:17.837Z,22.23
2018-03-25T13:21:46.298Z,21.47
2018-03-25T13:24:14.730Z,21.80
2018-03-25T13:26:43.094Z,24.20
2018-03-25T13:29:11.440Z,22.03
2018-03-25T13:31:39.807Z,22.30
2018-03-25T13:34:08.166Z,23.93
2018-03-25T13:36:36.556Z,24.50
2018-03-25T13:39:05.675Z,27.70
2018-03-25T13:41:34.042Z,26.90
2018-03-25T13:44:02.396Z,23.53
2018-03-25T13:46:30.757Z,23.97
2018-03-25T13:48:59.212Z,25.30
2018-03-25T13:51:27.630Z,25.77
2018-03-25T13:53:56.036Z,28.03
2018-03-25T13:56:24.469Z,27.90
2018-03-25T13:58:52.820Z,29.20
2018-03-25T14:01:21.200Z,26.13
2018-03-25T14:03:49.569Z,24.83
2018-03-25T14:06:18.089Z,25.37
2018-03-25T14:08:46.426Z,24.70
2018-03-25T14:11:14.776Z,24.27
2018-03-25T14:13:43.159Z,26.27
2018-03-25T14:16:11.587Z,26.60
2018-03-25T14:18:39.940Z,27.00
2018-03-25T14:21:09.032Z,27.20
2018-03-25T14:23:37.524Z,27.27
2018-03-25T14:26:05.919Z,26.73
2018-03-25T14:28:34.352Z,25.00
2018-03-25T14:31:02.694Z,26.33
2018-03-25T14:33:31.065Z,24.90
2018-03-25T14:35:59.547Z,25.30
2018-03-25T14:38:27.893Z,25.67
2018-03-25T14:40:56.270Z,26.93
2018-03-25T14:43:24.702Z,24.93
2018-03-25T14:45:53.056Z,25.13
2018-03-25T14:48:21.421Z,25.27
2018-03-25T14:50:50.162Z,26.27
2018-03-25T14:53:18.542Z,25.10
2018-03-25T14:55:46.916Z,23.93
2018-03-25T14:58:15.369Z,24.93
2018-03-25T15:00:43.858Z,24.07
2018-03-25T15:03:12.200Z,24.50
2018-03-25T15:05:40.614Z,22.93
2018-03-25T15:08:08.986Z,23.13
2018-03-25T15:10:37.418Z,23.57
2018-03-25T15:13:05.853Z,22.53
2018-03-25T15:15:34.234Z,23.80
2018-03-25T15:18:02.712Z,20.67
2018-03-25T15:20:31.070Z,21.53
2018-03-25T15:22:59.431Z,20.43
2018-03-25T15:25:28.578Z,30.67
2018-03-25T15:27:57.166Z,22.30
2018-03-25T15:30:26.402Z,21.00
2018-03-25T15:32:55.863Z,22.33
2018-03-25T15:35:24.284Z,19.90
2018-03-25T15:37:52.834Z,21.67
2018-03-25T15:40:21.180Z,20.33
2018-03-25T15:42:49.620Z,20.10
2018-03-25T15:45:17.997Z,21.37
2018-03-25T15:47:46.348Z,20.83
2018-03-25T15:50:14.722Z,21.87
2018-03-25T15:52:43.193Z,22.10
2018-03-25T15:55:11.550Z,20.03
2018-03-25T15:57:40.062Z,20.63
2018-03-25T16:00:08.469Z,20.53
2018-03-25T16:02:36.939Z,22.17
2018-03-25T16:05:05.287Z,19.50
2018-03-25T16:07:33.680Z,21.13
2018-03-25T16:10:02.026Z,20.43
2018-03-25T16:12:30.382Z,19.80
2018-03-25T16:14:59.526Z,20.13
2018-03-25T16:17:27.897Z,20.10
2018-03-25T16:19:56.315Z,20.37
2018-03-25T16:22:24.682Z,21.60
2018-03-25T16:24:53.149Z,20.17
2018-03-25T16:27:21.516Z,20.83
2018-03-25T16:29:49.920Z,22.20
2018-03-25T16:32:18.412Z,22.43
2018-03-25T16:34:46.996Z,21.80
2018-03-25T16:37:19.293Z,20.97
2018-03-25T16:39:47.675Z,19.83
2018-03-25T16:42:16.846Z,20.37
2018-03-25T16:44:45.244Z,21.43
2018-03-25T16:47:13.632Z,25.20
2018-03-25T16:49:42.115Z,20.77
2018-03-25T16:52:10.502Z,22.20
2018-03-25T16:54:38.886Z,20.33
2018-03-25T16:57:07.284Z,21.37
2018-03-25T16:59:35.681Z,22.00
2018-03-25T17:02:04.060Z,19.07
2018-03-25T17:04:32.512Z,22.70
2018-03-25T17:07:01.645Z,20.53
2018-03-25T17:09:30.011Z,22.10
2018-03-25T17:11:58.377Z,19.93
2018-03-25T17:14:26.773Z,22.33
2018-03-25T17:16:55.253Z,19.57
2018-03-25T17:19:23.667Z,21.60
2018-03-25T17:21:52.774Z,22.50
2018-03-25T17:24:21.084Z,23.83
2018-03-25T17:26:50.290Z,21.93
2018-03-25T17:29:18.686Z,22.07
2018-03-25T17:31:47.067Z,22.93
2018-03-25T17:34:15.431Z,23.67
2018-03-25T17:36:43.768Z,20.30
2018-03-25T17:39:12.132Z,22.07
2018-03-25T17:41:41.288Z,23.70
2018-03-25T17:44:10.456Z,22.60
2018-03-25T17:46:39.705Z,21.27
2018-03-25T17:49:08.089Z,22.90
2018-03-25T17:51:36.569Z,22.03
2018-03-25T17:54:04.957Z,21.23
2018-03-25T17:56:33.306Z,27.63
2018-03-25T17:59:01.733Z,21.77
2018-03-25T18:01:30.081Z,22.03
2018-03-25T18:03:58.563Z,23.87
2018-03-25T18:06:26.953Z,24.80
2018-03-25T18:08:55.294Z,24.33
2018-03-25T18:11:23.657Z,20.00
2018-03-25T18:13:52.770Z,22.47
2018-03-25T18:16:21.979Z,22.17
2018-03-25T18:18:50.329Z,23.03
2018-03-25T18:21:19.437Z,22.50
2018-03-25T18:23:48.544Z,23.60
2018-03-25T18:26:16.882Z,22.03
2018-03-25T18:28:45.233Z,21.10
2018-03-25T18:31:13.608Z,22.03
2018-03-25T18:33:41.981Z,22.67
2018-03-25T18:36:10.513Z,24.87
2018-03-25T18:38:38.865Z,22.63
2018-03-25T18:41:07.217Z,23.20
2018-03-25T18:43:35.564Z,23.13
2018-03-25T18:46:04.690Z,23.63
2018-03-25T18:48:33.025Z,23.07
2018-03-25T18:51:01.380Z,24.83
2018-03-25T18:53:29.786Z,23.70
2018-03-25T18:55:58.927Z,24.50
2018-03-25T18:58:27.273Z,24.07
2018-03-25T19:00:55.626Z,24.77
2018-03-25T19:03:24.232Z,23.47
2018-03-25T19:05:52.673Z,23.43
2018-03-25T19:08:21.010Z,23.17
2018-03-25T19:10:49.416Z,22.57
2018-03-25T19:13:17.773Z,24.67
2018-03-25T19:15:46.117Z,22.97
2018-03-25T19:18:14.596Z,23.43
2018-03-25T19:20:42.925Z,21.30
2018-03-25T19:23:11.332Z,23.77
2018-03-25T19:25:39.672Z,23.30
2018-03-25T19:28:08.049Z,21.73
2018-03-25T19:30:36.415Z,23.80
2018-03-25T19:33:05.596Z,24.57
2018-03-25T19:35:34.001Z,25.23
2018-03-25T19:38:02.368Z,24.87
2018-03-25T19:40:31.467Z,25.97
2018-03-25T19:43:00.582Z,20.90
2018-03-25T19:45:28.908Z,26.97
2018-03-25T19:47:57.300Z,25.57
2018-03-25T19:50:25.776Z,26.47
2018-03-25T19:55:29.628Z,24.73
2018-03-25T19:57:57.973Z,22.90
2018-03-25T20:00:26.327Z,20.90
2018-03-25T20:02:54.705Z,24.13
2018-03-25T20:05:23.200Z,25.03
2018-03-25T20:07:51.549Z,25.23
2018-03-25T20:10:19.887Z,24.90
2018-03-25T20:12:48.323Z,24.83
2018-03-25T20:15:16.680Z,21.73
2018-03-25T20:17:45.078Z,23.67
2018-03-25T20:20:13.549Z,25.20
2018-03-25T20:22:41.897Z,24.70
2018-03-25T20:25:11.048Z,23.80
2018-03-25T20:27:39.400Z,23.53
2018-03-25T20:30:07.751Z,22.83
2018-03-25T20:32:36.863Z,25.90
2018-03-25T20:35:05.218Z,26.87
2018-03-25T20:37:33.554Z,23.60
2018-03-25T20:40:02.282Z,24.27
2018-03-25T20:42:30.605Z,25.67
2018-03-25T20:44:59.860Z,24.20
2018-03-25T20:47:28.179Z,23.30
2018-03-25T20:49:56.537Z,24.40
2018-03-25T20:52:24.958Z,25.37
2018-03-25T20:54:53.313Z,24.60
2018-03-25T20:57:21.681Z,26.57
2018-03-25T20:59:50.017Z,26.13
2018-03-25T21:02:18.485Z,23.73
2018-03-25T21:04:46.822Z,31.87
2018-03-25T21:07:15.238Z,31.73
2018-03-25T21:09:43.580Z,25.83
2018-03-25T21:12:11.979Z,26.10
2018-03-25T21:14:40.346Z,26.07
2018-03-25T21:17:08.723Z,24.20
2018-03-25T21:19:37.108Z,25.30
2018-03-25T21:22:06.211Z,26.33
2018-03-25T21:24:34.911Z,28.47
2018-03-25T21:27:03.246Z,26.23
2018-03-25T21:29:32.352Z,27.27
2018-03-25T21:32:00.704Z,27.23
2018-03-25T21:34:29.829Z,27.87
2018-03-25T21:36:58.173Z,26.47
2018-03-25T21:39:26.504Z,24.67
2018-03-25T21:41:54.858Z,25.53
2018-03-25T21:44:24.007Z,25.00
2018-03-25T21:46:52.463Z,27.50
2018-03-25T21:49:20.798Z,26.17
2018-03-25T21:51:50.733Z,24.97
2018-03-25T21:54:19.074Z,25.73
2018-03-25T21:56:47.421Z,25.77
2018-03-25T21:59:15.793Z,30.17
2018-03-25T22:01:44.153Z,27.27
2018-03-25T22:04:12.501Z,25.50
2018-03-25T22:06:40.841Z,26.87
2018-03-25T22:09:09.167Z,27.23
2018-03-25T22:11:38.274Z,26.37
2018-03-25T22:14:06.669Z,30.47
2018-03-25T22:16:34.967Z,32.47
2018-03-25T22:19:03.305Z,28.57
2018-03-25T22:21:32.539Z,27.67
2018-03-25T22:24:00.886Z,25.47
2018-03-25T22:26:30.007Z,28.87
2018-03-25T22:28:58.360Z,26.00
2018-03-25T22:31:27.643Z,28.23
2018-03-25T22:33:56.769Z,28.67
2018-03-25T22:36:25.773Z,29.23
2018-03-25T22:38:54.158Z,27.77
2018-03-25T22:41:22.533Z,28.70
2018-03-25T22:43:51.329Z,27.23
2018-03-25T22:46:20.121Z,27.53
2018-03-25T22:48:48.894Z,28.43
2018-03-25T22:51:17.338Z,28.83
2018-03-25T22:53:46.662Z,27.97
2018-03-25T22:56:15.776Z,27.93
2018-03-25T22:58:44.237Z,29.00
2018-03-25T23:01:13.356Z,29.17
2018-03-25T23:03:42.373Z,28.60
2018-03-25T23:06:11.746Z,29.10
2018-03-25T23:08:40.709Z,27.83
2018-03-25T23:11:09.844Z,31.10
2018-03-25T23:13:38.275Z,29.23
2018-03-25T23:16:07.458Z,27.77
2018-03-25T23:18:35.797Z,31.30
2018-03-25T23:21:04.140Z,27.70
2018-03-25T23:23:33.261Z,29.00
2018-03-25T23:26:02.407Z,27.87
2018-03-25T23:28:30.776Z,29.63
2018-03-25T23:30:59.133Z,30.03
2018-03-25T23:33:27.474Z,30.30
2018-03-25T23:35:55.816Z,31.93
2018-03-25T23:38:24.180Z,29.17
2018-03-25T23:40:53.035Z,30.00
2018-03-25T23:43:21.966Z,31.17
2018-03-25T23:45:50.322Z,32.40
2018-03-25T23:48:18.709Z,31.27
2018-03-25T23:50:47.109Z,29.93
2018-03-25T23:53:15.464Z,33.47
2018-03-25T23:55:43.848Z,31.90
2018-03-25T23:58:13.040Z,32.43
